SBI5306 UNKL-UNNT
Flight info
| Callsign | SBI5306 |
|---|---|
| Flight time | N/A |
| Altitude | 36000 |
| Route | APRUS2F APRUS B926 NATIR NATIR1K |
| Aircraft | A320/M-SDE3FGHIRWY/LB1 |
Departure
| Time | 2026-04-30 14:53 |
|---|---|
| Airport | Krasnoyarsk International Airport (UNKL) |
Arrival
| Time | N/A |
|---|---|
| Airport | Novosibirsk Tolmachevo Airport (UNNT) |
| Time | Latitude | Longitude | Altitude | Speed | Heading |
|---|---|---|---|---|---|
| 2026-04-30 14:21 | 56.17940 | 92.48531 | 951 ft | 0 kts | 22° |
| 2026-04-30 14:40 | 56.17931 | 92.48525 | 950 ft | 2 kts | 20° |
| 2026-04-30 14:40 | 56.17921 | 92.48518 | 950 ft | 2 kts | 19° |
| 2026-04-30 14:40 | 56.17905 | 92.48509 | 950 ft | 2 kts | 14° |
| 2026-04-30 14:41 | 56.17889 | 92.48502 | 950 ft | 2 kts | 6° |
| 2026-04-30 14:41 | 56.17873 | 92.48502 | 950 ft | 2 kts | 333° |
| 2026-04-30 14:41 | 56.17862 | 92.48520 | 948 ft | 1 kts | 290° |
| 2026-04-30 14:41 | 56.17861 | 92.48523 | 948 ft | 0 kts | 288° |
| 2026-04-30 14:45 | 56.17861 | 92.48503 | 948 ft | 2 kts | 259° |
| 2026-04-30 14:45 | 56.17854 | 92.48486 | 949 ft | 1 kts | 230° |
| 2026-04-30 14:45 | 56.17850 | 92.48479 | 950 ft | 3 kts | 224° |
| 2026-04-30 14:45 | 56.17774 | 92.48412 | 951 ft | 13 kts | 204° |
| 2026-04-30 14:46 | 56.17732 | 92.48437 | 951 ft | 5 kts | 112° |
| 2026-04-30 14:46 | 56.17720 | 92.48490 | 951 ft | 4 kts | 112° |
| 2026-04-30 14:46 | 56.17691 | 92.48613 | 951 ft | 20 kts | 113° |
| 2026-04-30 14:46 | 56.17632 | 92.48848 | 951 ft | 21 kts | 114° |
| 2026-04-30 14:47 | 56.17571 | 92.49098 | 950 ft | 22 kts | 113° |
| 2026-04-30 14:47 | 56.17508 | 92.49363 | 951 ft | 24 kts | 113° |
| 2026-04-30 14:47 | 56.17442 | 92.49640 | 950 ft | 25 kts | 113° |
| 2026-04-30 14:47 | 56.17373 | 92.49927 | 951 ft | 25 kts | 113° |
| 2026-04-30 14:48 | 56.17301 | 92.50224 | 951 ft | 26 kts | 113° |
| 2026-04-30 14:48 | 56.17234 | 92.50507 | 951 ft | 23 kts | 113° |
| 2026-04-30 14:48 | 56.17168 | 92.50779 | 950 ft | 24 kts | 113° |
| 2026-04-30 14:48 | 56.17102 | 92.51060 | 951 ft | 25 kts | 113° |
| 2026-04-30 14:49 | 56.17031 | 92.51356 | 951 ft | 26 kts | 112° |
| 2026-04-30 14:49 | 56.16960 | 92.51655 | 951 ft | 22 kts | 112° |
| 2026-04-30 14:49 | 56.16922 | 92.51814 | 950 ft | 13 kts | 114° |
| 2026-04-30 14:49 | 56.16873 | 92.51946 | 950 ft | 12 kts | 153° |
| 2026-04-30 14:50 | 56.16793 | 92.52001 | 951 ft | 0 kts | 159° |
| 2026-04-30 14:51 | 56.16780 | 92.52010 | 951 ft | 7 kts | 159° |
| 2026-04-30 14:51 | 56.16678 | 92.52038 | 952 ft | 11 kts | 211° |
| 2026-04-30 14:52 | 56.16674 | 92.51922 | 953 ft | 9 kts | 289° |
| 2026-04-30 14:52 | 56.16686 | 92.51867 | 953 ft | 11 kts | 292° |
| 2026-04-30 14:52 | 56.16824 | 92.51293 | 951 ft | 86 kts | 293° |
| 2026-04-30 14:53 | 56.17585 | 92.48137 | 1112 ft | 172 kts | 295° |
| 2026-04-30 14:53 | 56.18107 | 92.46123 | 1690 ft | 181 kts | 293° |
| 2026-04-30 14:54 | 56.19147 | 92.41759 | 2697 ft | 207 kts | 291° |
| 2026-04-30 14:54 | 56.19997 | 92.36269 | 3564 ft | 251 kts | 263° |
| 2026-04-30 14:55 | 56.18916 | 92.30170 | 5315 ft | 260 kts | 252° |
| 2026-04-30 14:55 | 56.18339 | 92.27082 | 6240 ft | 262 kts | 252° |
| 2026-04-30 14:55 | 56.17176 | 92.20802 | 7948 ft | 268 kts | 253° |
| 2026-04-30 14:56 | 56.15984 | 92.14409 | 9646 ft | 275 kts | 254° |
| 2026-04-30 14:56 | 56.14724 | 92.07710 | 10783 ft | 301 kts | 255° |
| 2026-04-30 14:57 | 56.14031 | 92.04031 | 11166 ft | 318 kts | 254° |
| 2026-04-30 14:57 | 56.12578 | 91.96385 | 12592 ft | 328 kts | 255° |
| 2026-04-30 14:58 | 56.11083 | 91.88564 | 14075 ft | 335 kts | 255° |
| 2026-04-30 14:58 | 56.10319 | 91.84583 | 14697 ft | 339 kts | 255° |
| 2026-04-30 14:58 | 56.08774 | 91.76525 | 15984 ft | 345 kts | 256° |
| 2026-04-30 14:59 | 56.07194 | 91.68327 | 17265 ft | 351 kts | 256° |
| 2026-04-30 15:00 | 56.04781 | 91.55855 | 18242 ft | 357 kts | 256° |
| 2026-04-30 15:00 | 56.03143 | 91.47469 | 18238 ft | 356 kts | 255° |
| 2026-04-30 15:01 | 56.01499 | 91.39080 | 18478 ft | 360 kts | 255° |
| 2026-04-30 15:01 | 56.00670 | 91.34864 | 19077 ft | 362 kts | 255° |
| 2026-04-30 15:01 | 55.98984 | 91.26321 | 20192 ft | 366 kts | 255° |
| 2026-04-30 15:02 | 55.98236 | 91.22031 | 20725 ft | 365 kts | 262° |
| 2026-04-30 15:02 | 55.97708 | 91.17521 | 21251 ft | 368 kts | 263° |
| 2026-04-30 15:03 | 55.96136 | 91.04032 | 22771 ft | 375 kts | 262° |
| 2026-04-30 15:03 | 55.95047 | 90.94845 | 23753 ft | 381 kts | 262° |
| 2026-04-30 15:04 | 55.93934 | 90.85527 | 24573 ft | 385 kts | 263° |
| 2026-04-30 15:04 | 55.92296 | 90.71918 | 25729 ft | 392 kts | 263° |
| 2026-04-30 15:05 | 55.90162 | 90.57698 | 26890 ft | 405 kts | 257° |
| 2026-04-30 15:06 | 55.88000 | 90.48301 | 27679 ft | 416 kts | 250° |
| 2026-04-30 15:06 | 55.85014 | 90.39272 | 28369 ft | 431 kts | 241° |
| 2026-04-30 15:07 | 55.81106 | 90.30959 | 29015 ft | 447 kts | 231° |